createdAt,value
2022-09-14T00:00:07.860Z,99.90
2022-09-14T00:03:26.673Z,99.90
2022-09-14T00:06:25.963Z,99.90
2022-09-14T00:09:25.419Z,99.90
2022-09-14T00:12:25.458Z,99.90
2022-09-14T00:15:24.320Z,99.90
2022-09-14T00:18:23.106Z,99.90
2022-09-14T00:21:22.472Z,99.90
2022-09-14T00:24:22.396Z,99.90
2022-09-14T00:27:21.112Z,99.90
2022-09-14T00:30:20.154Z,99.90
2022-09-14T00:33:18.706Z,99.90
2022-09-14T00:36:21.179Z,99.90
2022-09-14T00:39:22.480Z,99.90
2022-09-14T00:42:21.560Z,99.90
2022-09-14T00:45:22.728Z,99.90
2022-09-14T00:48:25.817Z,99.90
2022-09-14T00:51:25.179Z,99.90
2022-09-14T00:54:24.029Z,99.90
2022-09-14T00:57:23.255Z,99.90
2022-09-14T01:00:25.879Z,99.90
2022-09-14T01:03:24.362Z,99.90
2022-09-14T01:06:41.138Z,99.90
2022-09-14T01:10:10.199Z,99.90
2022-09-14T01:13:27.395Z,99.90
2022-09-14T01:16:42.258Z,99.90
2022-09-14T01:19:59.019Z,99.90
2022-09-14T01:23:23.346Z,99.90
2022-09-14T01:26:44.358Z,99.90
2022-09-14T01:29:50.861Z,99.90
2022-09-14T01:32:59.397Z,99.90
2022-09-14T01:36:02.179Z,99.90
2022-09-14T01:39:02.883Z,99.90
2022-09-14T01:42:02.197Z,99.90
2022-09-14T01:45:08.260Z,99.90
2022-09-14T01:48:09.629Z,99.90
2022-09-14T01:51:13.563Z,99.90
2022-09-14T01:54:24.204Z,99.90
2022-09-14T01:57:28.562Z,99.90
2022-09-14T02:00:27.793Z,99.90
2022-09-14T02:03:32.086Z,99.90
2022-09-14T02:06:40.477Z,99.90
2022-09-14T02:09:40.087Z,99.50
2022-09-14T02:12:39.865Z,99.60
2022-09-14T02:15:39.825Z,99.10
2022-09-14T02:18:40.003Z,98.70
2022-09-14T02:21:39.518Z,98.20
2022-09-14T02:24:38.720Z,98.10
2022-09-14T02:27:37.788Z,97.60
2022-09-14T02:30:58.786Z,97.80
2022-09-14T02:34:24.168Z,97.70
2022-09-14T02:37:35.893Z,98.00
2022-09-14T02:40:41.453Z,97.30
2022-09-14T02:44:07.921Z,96.20
2022-09-14T02:47:28.732Z,96.20
2022-09-14T02:50:51.471Z,96.30
2022-09-14T02:54:01.206Z,95.90
2022-09-14T02:57:04.134Z,95.50
2022-09-14T03:00:03.060Z,95.20
2022-09-14T03:03:01.671Z,94.70
2022-09-14T03:06:00.707Z,94.90
2022-09-14T03:08:59.225Z,94.60
2022-09-14T03:11:58.039Z,94.60
2022-09-14T03:14:56.427Z,94.00
2022-09-14T03:17:55.474Z,94.10
2022-09-14T03:20:53.904Z,93.70
2022-09-14T03:23:55.620Z,93.90
2022-09-14T03:26:54.010Z,94.10
2022-09-14T03:29:52.837Z,93.90
2022-09-14T03:32:51.394Z,93.20
2022-09-14T03:35:50.130Z,92.80
2022-09-14T03:38:51.660Z,92.60
2022-09-14T03:41:51.517Z,94.10
2022-09-14T03:44:49.888Z,93.10
2022-09-14T03:47:49.212Z,91.60
2022-09-14T03:50:47.931Z,93.80
2022-09-14T03:53:47.245Z,93.90
2022-09-14T03:56:45.820Z,93.10
2022-09-14T03:59:44.712Z,92.60
2022-09-14T04:02:44.428Z,90.30
2022-09-14T04:05:46.789Z,90.10
2022-09-14T04:08:46.644Z,90.90
2022-09-14T04:11:46.035Z,91.70
2022-09-14T04:14:44.467Z,91.50
2022-09-14T04:17:43.539Z,90.60
2022-09-14T04:20:42.274Z,89.70
2022-09-14T04:26:59.798Z,89.50
2022-09-14T04:29:58.948Z,90.70
2022-09-14T04:32:57.617Z,90.90
2022-09-14T04:36:00.303Z,89.80
2022-09-14T04:39:01.219Z,90.00
2022-09-14T04:42:00.630Z,90.40
2022-09-14T04:45:00.485Z,91.30
2022-09-14T04:47:59.206Z,90.50
2022-09-14T04:51:18.135Z,89.60
2022-09-14T04:54:18.260Z,90.50
2022-09-14T04:57:16.905Z,90.70
2022-09-14T05:00:15.716Z,90.00
2022-09-14T05:03:14.132Z,87.70
2022-09-14T05:06:23.767Z,88.10
2022-09-14T05:09:22.600Z,85.10
2022-09-14T05:12:21.565Z,88.20
2022-09-14T05:15:19.999Z,88.10
2022-09-14T05:18:20.374Z,87.50
2022-09-14T05:21:21.677Z,87.00
2022-09-14T05:24:21.066Z,86.60
2022-09-14T05:27:19.458Z,87.80
2022-09-14T05:30:18.334Z,87.70
2022-09-14T05:33:16.747Z,83.30
2022-09-14T05:36:15.678Z,83.60
2022-09-14T05:39:14.247Z,83.60
2022-09-14T05:42:13.035Z,84.90
2022-09-14T05:45:11.783Z,87.40
2022-09-14T05:48:10.535Z,87.80
2022-09-14T05:51:14.618Z,87.30
2022-09-14T05:58:11.837Z,86.00
2022-09-14T06:01:14.274Z,86.40
2022-09-14T06:04:12.989Z,87.00
2022-09-14T06:07:19.219Z,87.40
2022-09-14T06:10:18.013Z,86.20
2022-09-14T06:13:16.841Z,87.50
2022-09-14T06:16:18.076Z,87.80
2022-09-14T06:19:17.022Z,88.70
2022-09-14T06:22:15.756Z,89.10
2022-09-14T06:25:14.801Z,89.90
2022-09-14T06:28:13.388Z,88.70
2022-09-14T06:31:16.391Z,89.50
2022-09-14T06:34:15.054Z,89.60
2022-09-14T06:37:13.965Z,90.00
2022-09-14T06:40:12.610Z,89.40
2022-09-14T06:43:11.386Z,88.50
2022-09-14T06:46:15.338Z,89.40
2022-09-14T06:49:21.383Z,89.20
2022-09-14T06:52:20.135Z,88.90
2022-09-14T06:55:19.660Z,87.60
2022-09-14T07:01:20.341Z,88.40
2022-09-14T07:04:19.279Z,87.80
2022-09-14T07:07:17.989Z,87.00
2022-09-14T07:10:25.823Z,87.10
2022-09-14T07:13:24.978Z,87.60
2022-09-14T07:16:24.493Z,88.00
2022-09-14T07:19:25.231Z,87.30
2022-09-14T07:22:23.760Z,86.20
2022-09-14T07:25:30.771Z,86.00
2022-09-14T07:28:29.414Z,87.20
2022-09-14T07:31:31.410Z,88.10
2022-09-14T07:34:30.194Z,87.30
2022-09-14T07:37:30.790Z,88.60
2022-09-14T07:40:29.589Z,85.80
2022-09-14T07:43:29.083Z,85.40
2022-09-14T07:46:29.348Z,84.00
2022-09-14T07:49:28.247Z,85.80
2022-09-14T07:52:26.888Z,86.50
2022-09-14T07:55:25.689Z,85.20
2022-09-14T07:58:24.352Z,82.20
2022-09-14T08:01:24.117Z,82.60
2022-09-14T08:04:22.872Z,81.30
2022-09-14T08:07:22.240Z,83.80
2022-09-14T08:10:20.833Z,84.20
2022-09-14T08:16:19.949Z,83.00
2022-09-14T08:19:21.819Z,83.80
2022-09-14T08:22:20.342Z,82.60
2022-09-14T08:25:20.801Z,80.70
2022-09-14T08:28:19.314Z,78.30
2022-09-14T08:31:21.874Z,79.40
2022-09-14T08:34:21.085Z,80.30
2022-09-14T08:37:19.991Z,79.50
2022-09-14T08:40:18.742Z,79.50
2022-09-14T08:43:18.954Z,79.90
2022-09-14T08:46:35.291Z,78.70
2022-09-14T08:49:53.332Z,78.30
2022-09-14T08:52:55.411Z,76.60
2022-09-14T08:56:05.221Z,76.80
2022-09-14T08:59:29.223Z,76.90
2022-09-14T09:02:44.173Z,82.20
2022-09-14T09:05:52.565Z,80.40
2022-09-14T09:09:18.275Z,76.50
2022-09-14T09:12:22.051Z,80.30
2022-09-14T09:15:27.607Z,76.40
2022-09-14T09:18:44.797Z,77.40
2022-09-14T09:21:48.639Z,80.10
2022-09-14T09:24:51.894Z,79.60
2022-09-14T09:27:55.328Z,74.80
2022-09-14T09:30:56.228Z,77.70
2022-09-14T09:33:54.957Z,77.60
2022-09-14T09:36:56.413Z,74.80
2022-09-14T09:39:55.208Z,74.10
2022-09-14T09:43:06.483Z,74.40
2022-09-14T09:46:07.850Z,76.30
2022-09-14T09:49:30.915Z,71.50
2022-09-14T09:52:33.056Z,70.60
2022-09-14T09:55:38.670Z,75.00
2022-09-14T09:58:39.421Z,77.20
2022-09-14T10:01:38.098Z,70.30
2022-09-14T10:04:36.926Z,70.60
2022-09-14T10:07:40.106Z,70.70
2022-09-14T10:10:43.653Z,69.00
2022-09-14T10:13:42.128Z,73.00
2022-09-14T10:16:42.460Z,68.30
2022-09-14T10:19:41.168Z,69.20
2022-09-14T10:22:42.005Z,69.20
2022-09-14T10:25:40.403Z,70.00
2022-09-14T10:28:41.552Z,73.70
2022-09-14T10:31:41.986Z,69.80
2022-09-14T10:34:40.775Z,71.90
2022-09-14T10:37:58.653Z,73.40
2022-09-14T10:41:10.897Z,70.60
2022-09-14T10:44:34.607Z,70.10
2022-09-14T10:47:54.585Z,70.20
2022-09-14T10:51:24.082Z,71.00
2022-09-14T10:54:42.892Z,71.00
2022-09-14T10:58:02.537Z,75.70
2022-09-14T11:01:26.868Z,75.10
2022-09-14T11:04:58.246Z,75.30
2022-09-14T11:08:22.572Z,74.70
2022-09-14T11:11:36.879Z,71.80
2022-09-14T11:14:48.771Z,71.50
2022-09-14T11:18:04.606Z,70.70
2022-09-14T11:21:18.505Z,67.30
2022-09-14T11:24:35.638Z,68.00
2022-09-14T11:27:41.332Z,68.00
2022-09-14T11:30:46.283Z,68.40
2022-09-14T11:33:53.587Z,68.70
2022-09-14T11:36:56.511Z,69.10
2022-09-14T11:40:08.345Z,69.30
2022-09-14T11:43:25.991Z,70.40
2022-09-14T11:46:37.435Z,71.00
2022-09-14T11:49:57.392Z,71.10
2022-09-14T11:53:04.662Z,70.80
2022-09-14T11:56:03.630Z,70.60
2022-09-14T11:59:07.166Z,70.60
2022-09-14T12:02:43.417Z,72.00
2022-09-14T12:05:45.074Z,71.30
2022-09-14T12:08:43.969Z,71.00
2022-09-14T12:11:45.498Z,71.20
2022-09-14T12:14:45.286Z,71.60
2022-09-14T12:17:45.744Z,72.00
2022-09-14T12:20:51.086Z,72.10
2022-09-14T12:23:57.947Z,71.90
2022-09-14T12:26:56.564Z,71.60
2022-09-14T12:29:55.458Z,72.00
2022-09-14T12:32:53.870Z,72.50
2022-09-14T12:35:52.889Z,72.10
2022-09-14T12:39:21.476Z,71.90
2022-09-14T12:42:30.508Z,72.70
2022-09-14T12:45:53.239Z,73.40
2022-09-14T12:48:59.452Z,73.50
2022-09-14T12:52:01.508Z,73.80
2022-09-14T12:55:15.668Z,73.90
2022-09-14T12:58:38.201Z,77.30
2022-09-14T13:02:07.898Z,74.40
2022-09-14T13:05:13.044Z,74.20
2022-09-14T13:08:19.933Z,74.40
2022-09-14T13:11:24.251Z,76.00
2022-09-14T13:14:27.017Z,75.70
2022-09-14T13:17:25.701Z,75.60
2022-09-14T13:20:24.672Z,75.70
2022-09-14T13:23:30.066Z,76.30
2022-09-14T13:26:32.341Z,76.70
2022-09-14T13:29:31.706Z,76.90
2022-09-14T13:32:31.421Z,76.80
2022-09-14T13:35:34.382Z,76.90
2022-09-14T13:38:37.545Z,76.10
2022-09-14T13:41:43.071Z,77.10
2022-09-14T13:44:47.020Z,77.40
2022-09-14T13:47:46.467Z,78.00
2022-09-14T13:50:48.668Z,78.60
2022-09-14T13:53:50.713Z,81.10
2022-09-14T13:57:13.660Z,80.90
2022-09-14T14:00:21.819Z,79.70
2022-09-14T14:03:29.624Z,81.50
2022-09-14T14:06:30.927Z,82.10
2022-09-14T14:09:43.222Z,83.50
2022-09-14T14:12:45.926Z,85.10
2022-09-14T14:15:47.873Z,86.00
2022-09-14T14:18:56.318Z,86.60
2022-09-14T14:22:19.376Z,87.20
2022-09-14T14:25:22.185Z,87.90
2022-09-14T14:28:27.443Z,88.90
2022-09-14T14:31:26.937Z,89.90
2022-09-14T14:34:31.613Z,89.60
2022-09-14T14:37:32.312Z,90.10
2022-09-14T14:40:33.900Z,90.70
2022-09-14T14:43:41.308Z,90.80
2022-09-14T14:46:42.909Z,90.50
2022-09-14T14:49:44.443Z,90.70
2022-09-14T14:52:44.624Z,90.90
2022-09-14T14:55:45.449Z,90.50
2022-09-14T14:58:46.383Z,90.90
2022-09-14T15:01:49.184Z,90.90
2022-09-14T15:04:49.585Z,91.50
2022-09-14T15:07:50.499Z,91.80
2022-09-14T15:10:57.062Z,91.90
2022-09-14T15:13:56.007Z,92.10
2022-09-14T15:16:59.628Z,92.50
2022-09-14T15:19:59.690Z,92.70
2022-09-14T15:22:59.443Z,93.20
2022-09-14T15:25:58.578Z,93.50
2022-09-14T15:29:00.812Z,93.60
2022-09-14T15:32:00.154Z,93.90
2022-09-14T15:35:05.552Z,94.00
2022-09-14T15:38:09.480Z,94.50
2022-09-14T15:41:13.342Z,94.50
2022-09-14T15:44:13.132Z,94.60
2022-09-14T15:47:18.021Z,94.80
2022-09-14T15:50:17.489Z,94.70
2022-09-14T15:53:18.163Z,95.20
2022-09-14T15:56:20.841Z,95.70
2022-09-14T15:59:20.933Z,94.20
2022-09-14T16:02:20.863Z,94.40
2022-09-14T16:05:19.969Z,95.50
2022-09-14T16:08:18.656Z,96.10
2022-09-14T16:11:17.734Z,96.50
2022-09-14T16:14:19.011Z,97.00
2022-09-14T16:17:18.781Z,97.00
2022-09-14T16:20:18.225Z,97.50
2022-09-14T16:23:21.408Z,97.70
2022-09-14T16:26:24.011Z,98.10
2022-09-14T16:29:26.278Z,98.30
2022-09-14T16:32:31.426Z,98.70
2022-09-14T16:35:32.727Z,98.90
2022-09-14T16:38:31.783Z,99.20
2022-09-14T16:41:38.300Z,99.50
2022-09-14T16:44:37.205Z,99.50
2022-09-14T16:47:42.811Z,99.80
2022-09-14T16:50:41.785Z,99.80
2022-09-14T16:53:44.555Z,99.90
2022-09-14T16:56:45.544Z,99.90
2022-09-14T16:59:44.341Z,99.90
2022-09-14T17:02:43.489Z,99.90
2022-09-14T17:05:42.365Z,99.90
2022-09-14T17:08:43.831Z,99.90
2022-09-14T17:11:43.322Z,99.90
2022-09-14T17:14:44.374Z,99.90
2022-09-14T17:17:43.121Z,99.90
2022-09-14T17:20:41.669Z,99.90
2022-09-14T17:23:42.328Z,99.90
2022-09-14T17:26:42.051Z,99.90
2022-09-14T17:29:41.319Z,99.90
2022-09-14T17:32:40.106Z,99.90
2022-09-14T17:35:38.822Z,99.90
2022-09-14T17:38:41.800Z,99.90
2022-09-14T17:41:43.206Z,99.90
2022-09-14T17:44:41.881Z,99.90
2022-09-14T17:47:40.615Z,99.90
2022-09-14T17:50:40.319Z,99.90
2022-09-14T17:53:41.427Z,99.90
2022-09-14T17:56:42.213Z,99.90
2022-09-14T17:59:41.433Z,99.90
2022-09-14T18:02:39.851Z,99.90
2022-09-14T18:05:38.628Z,99.90
2022-09-14T18:08:37.583Z,99.90
2022-09-14T18:11:36.945Z,99.90
2022-09-14T18:14:35.736Z,99.90
2022-09-14T18:17:34.591Z,99.90
2022-09-14T18:20:33.089Z,99.90
2022-09-14T18:23:32.746Z,99.90
2022-09-14T18:26:39.095Z,99.90
2022-09-14T18:29:37.828Z,99.90
2022-09-14T18:32:36.315Z,99.90
2022-09-14T18:35:38.395Z,99.90
2022-09-14T18:38:36.851Z,99.90
2022-09-14T18:41:35.711Z,99.90
2022-09-14T18:44:34.133Z,99.90
2022-09-14T18:47:35.638Z,99.90
2022-09-14T18:50:36.834Z,99.90
2022-09-14T18:53:50.083Z,99.90
2022-09-14T18:56:49.229Z,99.90
2022-09-14T18:59:47.645Z,99.90
2022-09-14T19:02:51.694Z,99.90
2022-09-14T19:05:50.083Z,99.90
2022-09-14T19:08:49.715Z,99.90
2022-09-14T19:11:49.349Z,99.90
2022-09-14T19:14:48.267Z,99.90
2022-09-14T19:17:49.468Z,99.90
2022-09-14T19:21:05.803Z,99.90
2022-09-14T19:24:10.474Z,99.90
2022-09-14T19:27:09.487Z,99.90
2022-09-14T19:30:08.522Z,99.90
2022-09-14T19:33:07.413Z,99.90
2022-09-14T19:36:07.946Z,99.90
2022-09-14T19:39:07.186Z,99.90
2022-09-14T19:42:06.713Z,99.90
2022-09-14T19:45:06.146Z,99.90
2022-09-14T19:48:04.675Z,99.90
2022-09-14T19:51:06.365Z,99.90
2022-09-14T19:54:04.748Z,99.90
2022-09-14T19:57:03.621Z,99.90
2022-09-14T20:00:02.095Z,99.90
2022-09-14T20:06:02.470Z,99.90
2022-09-14T20:09:06.249Z,99.90
2022-09-14T20:12:04.942Z,99.90
2022-09-14T20:15:03.901Z,99.90
2022-09-14T20:18:02.227Z,99.90
2022-09-14T20:21:01.101Z,99.90
2022-09-14T20:24:15.768Z,99.90
2022-09-14T20:27:14.951Z,99.90
2022-09-14T20:30:13.758Z,99.90
2022-09-14T20:33:12.765Z,99.90
2022-09-14T20:36:14.007Z,99.90
2022-09-14T20:39:12.910Z,99.90
2022-09-14T20:42:11.177Z,99.90
2022-09-14T20:45:11.563Z,99.90
2022-09-14T20:48:09.832Z,99.90
2022-09-14T20:51:08.857Z,99.90
2022-09-14T20:54:08.119Z,99.90
2022-09-14T20:57:07.046Z,99.90
2022-09-14T21:00:05.662Z,99.90
2022-09-14T21:03:04.588Z,99.90
2022-09-14T21:06:05.269Z,99.90
2022-09-14T21:09:05.216Z,99.90
2022-09-14T21:12:03.803Z,99.90
2022-09-14T21:15:02.887Z,99.90
2022-09-14T21:18:01.481Z,99.90
2022-09-14T21:21:06.220Z,99.90
2022-09-14T21:24:07.848Z,99.90
2022-09-14T21:27:08.259Z,99.90
2022-09-14T21:30:07.213Z,99.90
2022-09-14T21:33:06.576Z,99.90
2022-09-14T21:36:08.676Z,99.90
2022-09-14T21:39:11.470Z,99.90
2022-09-14T21:42:09.797Z,99.90
2022-09-14T21:45:09.280Z,99.90
2022-09-14T21:48:07.543Z,99.90
2022-09-14T21:51:15.364Z,99.90
2022-09-14T21:54:14.938Z,99.90
2022-09-14T21:57:14.409Z,99.90
2022-09-14T22:00:13.164Z,99.90
2022-09-14T22:03:12.241Z,99.90
2022-09-14T22:06:13.466Z,99.90
2022-09-14T22:09:13.877Z,99.90
2022-09-14T22:12:12.426Z,99.90
2022-09-14T22:15:11.724Z,99.90
2022-09-14T22:18:09.980Z,99.90
2022-09-14T22:21:09.525Z,99.90
2022-09-14T22:24:11.516Z,99.90
2022-09-14T22:27:11.168Z,99.90
2022-09-14T22:30:10.797Z,99.90
2022-09-14T22:33:10.803Z,99.90
2022-09-14T22:36:11.394Z,99.90
2022-09-14T22:39:11.398Z,99.90
2022-09-14T22:42:09.670Z,99.90
2022-09-14T22:45:09.038Z,99.90
2022-09-14T22:48:07.616Z,99.90
2022-09-14T22:51:09.316Z,99.90
2022-09-14T22:54:08.031Z,99.90
2022-09-14T22:57:07.045Z,99.90
2022-09-14T23:00:08.889Z,99.90
2022-09-14T23:03:10.040Z,99.90
2022-09-14T23:06:08.775Z,99.90
2022-09-14T23:09:10.413Z,99.90
2022-09-14T23:12:08.787Z,99.90
2022-09-14T23:15:08.373Z,99.90
2022-09-14T23:18:07.428Z,99.90
2022-09-14T23:21:06.880Z,99.90
2022-09-14T23:24:07.547Z,99.90
2022-09-14T23:27:07.368Z,99.90
2022-09-14T23:30:06.192Z,99.90
2022-09-14T23:33:05.325Z,99.90
2022-09-14T23:36:03.955Z,99.90
2022-09-14T23:39:04.477Z,99.90
2022-09-14T23:42:03.187Z,99.90
2022-09-14T23:45:02.146Z,99.90
2022-09-14T23:48:00.533Z,99.90
2022-09-14T23:51:02.505Z,99.90
2022-09-14T23:54:00.799Z,99.90
2022-09-14T23:56:59.645Z,99.90
2022-09-14T23:59:59.018Z,99.90
